Time;durP1;ratioP1;P1;durP2;ratioP2;P2;SDS_P1;SDS_P2;PMS_P1;PMS_P2;Temp;Humidity;BMP_temperature;BMP_pressure;BME280_temperature;BME280_humidity;BME280_pressure;Samples;Min_cycle;Max_cycle;Signal;HPM_P1;HPM_P2
2023/10/27 15:52:31;;;;;;;4.20;1.63;;;13.60;99.90;;;;;;5111665;27;20650;-65
2023/10/27 15:54:57;;;;;;;3.75;1.00;;;13.50;99.90;;;;;;5111068;28;20034;-62
2023/10/27 15:57:23;;;;;;;4.15;1.10;;;13.60;99.90;;;;;;5110606;28;20030;-62
2023/10/27 15:59:48;;;;;;;;;;;13.50;99.90;;;;;;5111099;28;20016;-63
2023/10/27 16:02:14;;;;;;;3.03;1.42;;;13.60;99.90;;;;;;5111381;28;19904;-63
2023/10/27 16:04:39;;;;;;;6.37;1.60;;;13.60;99.90;;;;;;5111125;28;20081;-61
2023/10/27 16:07:09;;;;;;;3.73;1.27;;;13.70;99.90;;;;;;5110875;28;20023;-62
2023/10/27 16:09:36;;;;;;;4.57;1.50;;;13.70;99.90;;;;;;5111362;28;20045;-62
2023/10/27 16:12:02;;;;;;;2.70;1.20;;;13.70;99.90;;;;;;5111384;28;20023;-62
2023/10/27 16:14:27;;;;;;;9.88;6.38;;;13.80;99.90;;;;;;5112523;28;20059;-64
2023/10/27 16:16:53;;;;;;;5.43;3.03;;;13.90;99.90;;;;;;5112103;28;20051;-63
2023/10/27 16:19:18;;;;;;;2.80;1.00;;;14.00;99.90;;;;;;5109577;28;20039;-62
2023/10/27 16:21:44;;;;;;;4.43;1.60;;;14.00;99.90;;;;;;5111284;28;20036;-61
2023/10/27 16:24:10;;;;;;;3.83;1.70;;;14.10;99.90;;;;;;5110689;28;20032;-61
2023/10/27 16:26:36;;;;;;;4.38;2.50;;;14.20;99.90;;;;;;5110410;28;20019;-62
2023/10/27 16:29:01;;;;;;;1.52;1.13;;;14.20;99.90;;;;;;5110258;28;20110;-62
2023/10/27 16:31:28;;;;;;;3.47;1.20;;;14.20;99.90;;;;;;5110372;28;20024;-63
2023/10/27 16:33:53;;;;;;;2.00;0.90;;;14.10;99.90;;;;;;5110961;28;20016;-62
2023/10/27 16:36:19;;;;;;;1.87;1.20;;;14.10;99.90;;;;;;5108879;28;20030;-64
2023/10/27 16:38:46;;;;;;;2.20;1.00;;;14.10;99.90;;;;;;5109999;28;20094;-62
2023/10/27 16:41:11;;;;;;;;;;;14.10;99.90;;;;;;5110585;28;20505;-62
2023/10/27 16:43:39;;;;;;;2.20;0.90;;;14.10;99.90;;;;;;5110156;28;19908;-61
2023/10/27 16:46:07;;;;;;;3.95;1.10;;;14.00;99.90;;;;;;5109878;28;20016;-62
2023/10/27 16:48:36;;;;;;;3.22;0.75;;;13.80;99.90;;;;;;5110022;28;20385;-62
2023/10/27 16:51:13;;;;;;;4.53;2.08;;;13.90;99.90;;;;;;5109687;28;20513;-62
2023/10/27 16:53:39;;;;;;;2.88;1.00;;;14.00;99.90;;;;;;5108280;28;20482;-66
2023/10/27 16:56:05;;;;;;;3.55;1.70;;;13.90;99.90;;;;;;5109472;28;20020;-66
2023/10/27 16:58:30;;;;;;;1.88;1.10;;;13.90;99.90;;;;;;5109016;28;20035;-67
2023/10/27 17:01:02;;;;;;;5.33;1.30;;;13.80;99.90;;;;;;5109960;28;20060;-68
2023/10/27 17:03:33;;;;;;;5.18;1.25;;;13.60;99.90;;;;;;5098193;28;20562;-66
2023/10/27 17:06:00;;;;;;;6.78;1.35;;;13.60;99.90;;;;;;5095813;28;20024;-66
2023/10/27 17:08:28;;;;;;;2.83;0.93;;;13.60;99.90;;;;;;5095655;28;20024;-67
2023/10/27 17:10:55;;;;;;;2.20;0.80;;;13.70;99.90;;;;;;5094711;28;20028;-66
2023/10/27 17:13:20;;;;;;;;;;;13.70;99.90;;;;;;5095966;28;20020;-67
2023/10/27 17:15:45;;;;;;;3.22;1.23;;;13.50;99.90;;;;;;5095767;28;19904;-65
2023/10/27 17:18:11;;;;;;;1.70;0.80;;;13.50;99.90;;;;;;5095377;28;20115;-66
2023/10/27 17:20:36;;;;;;;3.80;0.90;;;13.40;99.90;;;;;;5094347;28;20119;-66
2023/10/27 17:23:02;;;;;;;1.23;0.60;;;13.50;99.90;;;;;;5095595;28;20100;-66
2023/10/27 17:25:31;;;;;;;3.27;1.33;;;13.40;99.90;;;;;;5095302;28;20086;-65
2023/10/27 17:27:56;;;;;;;3.80;1.25;;;13.40;99.90;;;;;;5095232;28;20059;-66
2023/10/27 17:30:23;;;;;;;2.23;1.07;;;13.40;99.90;;;;;;5094864;28;20024;-67
2023/10/27 17:32:49;;;;;;;4.20;1.13;;;13.30;99.90;;;;;;5095377;28;20141;-67
2023/10/27 17:35:14;;;;;;;2.50;1.17;;;13.40;99.90;;;;;;5093750;28;20028;-66
2023/10/27 17:37:40;;;;;;;17.13;9.53;;;13.50;99.90;;;;;;5095459;28;20023;-66
2023/10/27 17:40:07;;;;;;;3.35;1.77;;;13.40;99.90;;;;;;5094919;28;20027;-66
2023/10/27 17:42:33;;;;;;;5.70;1.17;;;13.30;99.90;;;;;;5094847;28;20036;-66
2023/10/27 17:44:58;;;;;;;6.00;1.07;;;13.20;99.90;;;;;;5093271;28;20016;-66
2023/10/27 17:47:24;;;;;;;4.80;1.40;;;13.20;99.90;;;;;;5094911;28;20020;-68
2023/10/27 17:49:52;;;;;;;3.60;0.90;;;13.10;99.90;;;;;;5095245;28;20085;-68
2023/10/27 17:52:18;;;;;;;3.85;1.20;;;13.10;99.90;;;;;;5100967;28;20073;-67
2023/10/27 17:54:43;;;;;;;3.40;1.25;;;12.90;99.90;;;;;;5096709;28;20470;-67
2023/10/27 17:57:09;;;;;;;5.93;1.17;;;13.00;99.90;;;;;;5094998;28;20077;-70
2023/10/27 17:59:34;;;;;;;4.93;1.40;;;12.90;99.90;;;;;;5094732;28;20319;-67
2023/10/27 18:02:03;;;;;;;2.33;1.02;;;12.80;99.90;;;;;;5094944;28;20024;-66
2023/10/27 18:04:29;;;;;;;3.15;1.40;;;12.70;99.90;;;;;;5095255;28;20039;-66
2023/10/27 18:06:55;;;;;;;4.30;1.50;;;12.90;99.90;;;;;;5094881;28;20020;-67
2023/10/27 18:09:21;;;;;;;6.67;2.10;;;12.80;99.90;;;;;;5094733;28;20027;-66
2023/10/27 18:11:48;;;;;;;4.28;1.80;;;12.80;99.90;;;;;;5094929;28;20099;-66
2023/10/27 18:14:13;;;;;;;7.32;3.38;;;12.80;99.90;;;;;;5093067;28;20493;-66
2023/10/27 18:16:39;;;;;;;8.80;2.90;;;12.70;99.90;;;;;;5094508;28;20024;-66
2023/10/27 18:19:05;;;;;;;4.05;1.83;;;12.60;99.90;;;;;;5094826;28;20145;-66
2023/10/27 18:21:32;;;;;;;4.85;2.13;;;12.60;99.90;;;;;;5092295;22;20141;-69
2023/10/27 18:23:58;;;;;;;;;;;12.60;99.90;;;;;;5034093;28;20025;-69
2023/10/27 18:26:23;;;;;;;5.65;1.85;;;12.70;99.90;;;;;;5034333;28;20443;-69
2023/10/27 18:28:49;;;;;;;4.50;1.73;;;12.70;99.90;;;;;;5034346;28;20071;-69
2023/10/27 18:31:18;;;;;;;4.27;1.30;;;12.70;99.90;;;;;;5032817;28;20056;-69
2023/10/27 18:33:44;;;;;;;7.05;2.10;;;12.70;99.90;;;;;;5032865;28;20060;-69
2023/10/27 18:36:14;;;;;;;;;;;12.80;99.90;;;;;;5033223;28;20071;-68
2023/10/27 18:38:41;;;;;;;5.35;1.73;;;12.80;99.90;;;;;;5032846;28;19991;-69
2023/10/27 18:41:09;;;;;;;5.10;1.67;;;12.80;99.90;;;;;;5034093;28;20025;-69
2023/10/27 18:43:40;;;;;;;5.13;2.00;;;12.80;99.90;;;;;;5032807;28;20025;-70
2023/10/27 18:46:07;;;;;;;5.10;1.98;;;12.70;99.90;;;;;;5034079;28;20021;-70
2023/10/27 18:48:33;;;;;;;5.05;2.00;;;12.60;99.90;;;;;;5033956;28;20455;-70
2023/10/27 18:50:59;;;;;;;6.78;2.00;;;12.60;99.90;;;;;;5032253;28;20029;-69
2023/10/27 18:53:26;;;;;;;5.00;1.75;;;12.60;99.90;;;;;;5033974;28;20032;-70
2023/10/27 18:56:06;;;;;;;9.25;3.53;;;12.60;99.90;;;;;;5032502;28;20033;-70
2023/10/27 18:58:33;;;;;;;7.55;2.63;;;12.70;99.90;;;;;;5033193;28;20031;-71
2023/10/27 19:01:05;;;;;;;7.78;2.25;;;12.70;99.90;;;;;;5032567;28;20028;-69
2023/10/27 19:03:38;;;;;;;7.95;3.45;;;12.60;99.90;;;;;;5033036;28;20143;-70
2023/10/27 19:06:05;;;;;;;14.13;6.75;;;12.70;99.90;;;;;;5033693;28;20041;-69
2023/10/27 19:08:31;;;;;;;12.07;4.63;;;12.60;99.90;;;;;;5033599;28;20033;-70
2023/10/27 19:11:10;;;;;;;17.85;5.22;;;12.60;99.90;;;;;;5033261;28;20438;-70
2023/10/27 19:13:37;;;;;;;6.70;1.90;;;12.70;99.90;;;;;;5032159;28;20026;-69
2023/10/27 19:16:04;;;;;;;5.32;1.77;;;12.60;99.90;;;;;;5032252;28;20452;-70
2023/10/27 19:18:30;;;;;;;5.90;1.77;;;12.70;99.90;;;;;;5032627;28;20116;-70
2023/10/27 19:21:10;;;;;;;6.35;2.17;;;12.60;99.90;;;;;;5033156;28;20457;-69
2023/10/27 19:23:42;;;;;;;7.60;2.17;;;12.50;99.90;;;;;;5033100;28;20040;-70
2023/10/27 19:26:12;;;;;;;12.25;4.20;;;12.40;99.90;;;;;;5033050;28;20033;-70
2023/10/27 19:28:38;;;;;;;12.98;4.95;;;12.40;99.90;;;;;;5038787;28;20029;-70
2023/10/27 19:31:04;;;;;;;9.80;2.85;;;12.30;99.90;;;;;;5036362;28;20117;-70
2023/10/27 19:33:29;;;;;;;6.97;1.58;;;12.30;99.90;;;;;;5032687;28;20498;-69
2023/10/27 19:35:55;;;;;;;7.70;2.45;;;12.40;99.90;;;;;;5032369;28;20473;-69
2023/10/27 19:38:21;;;;;;;5.85;2.63;;;12.40;99.90;;;;;;5032093;28;20340;-69
2023/10/27 19:40:46;;;;;;;5.07;2.20;;;12.40;99.90;;;;;;5033258;28;20022;-69
2023/10/27 19:43:12;;;;;;;12.40;6.07;;;12.40;99.90;;;;;;5033318;28;20029;-69
2023/10/27 19:45:38;;;;;;;6.53;2.43;;;12.40;99.90;;;;;;5031981;28;20030;-68
2023/10/27 19:48:05;;;;;;;9.38;3.53;;;12.40;99.90;;;;;;5033157;28;20029;-70
2023/10/27 19:50:32;;;;;;;;;;;12.40;99.90;;;;;;5033925;28;20029;-69
2023/10/27 19:52:59;;;;;;;6.05;2.25;;;12.40;99.90;;;;;;5032614;28;19917;-69
2023/10/27 19:55:25;;;;;;;8.63;2.20;;;12.30;99.90;;;;;;5032184;28;20026;-70
2023/10/27 19:57:51;;;;;;;4.22;1.75;;;12.30;99.90;;;;;;5031632;28;20021;-70
2023/10/27 20:00:19;;;;;;;3.55;1.50;;;12.30;99.90;;;;;;5030699;28;20044;-69
2023/10/27 20:02:44;;;;;;;6.03;2.20;;;12.30;99.90;;;;;;5031415;28;20021;-70
2023/10/27 20:05:13;;;;;;;4.60;1.77;;;12.30;99.90;;;;;;5031308;28;20024;-69
2023/10/27 20:07:39;;;;;;;8.38;2.90;;;12.40;99.90;;;;;;5031397;28;20029;-70
2023/10/27 20:10:05;;;;;;;6.38;3.05;;;12.40;99.90;;;;;;5031631;28;20436;-69
2023/10/27 20:12:31;;;;;;;6.90;2.17;;;12.40;99.90;;;;;;5032782;28;20397;-69
2023/10/27 20:14:57;;;;;;;5.20;2.23;;;12.50;99.90;;;;;;5032974;28;20094;-68
2023/10/27 20:17:24;;;;;;;5.00;2.03;;;12.60;99.90;;;;;;5032460;28;20060;-69
2023/10/27 20:19:50;;;;;;;8.23;2.95;;;12.60;99.90;;;;;;5035173;28;20021;-69
2023/10/27 20:22:15;;;;;;;6.60;2.57;;;12.60;99.90;;;;;;5031082;28;20037;-69
2023/10/27 20:24:41;;;;;;;5.90;1.80;;;12.80;99.90;;;;;;5028674;28;20044;-68
2023/10/27 20:27:06;;;;;;;7.63;3.30;;;13.00;99.90;;;;;;5013353;28;20503;-69
2023/10/27 20:29:32;;;;;;;4.70;1.63;;;13.00;99.90;;;;;;5011644;28;20022;-69
2023/10/27 20:31:59;;;;;;;5.23;1.30;;;12.90;99.90;;;;;;5027607;28;20060;-69
2023/10/27 20:34:25;;;;;;;4.00;1.27;;;12.90;99.90;;;;;;5031108;28;20104;-69
2023/10/27 20:36:51;;;;;;;4.90;1.60;;;12.90;99.90;;;;;;5031129;28;20053;-69
2023/10/27 20:39:16;;;;;;;8.00;2.00;;;12.90;99.90;;;;;;5036433;28;20256;-69
2023/10/27 20:41:42;;;;;;;8.43;1.40;;;13.00;99.90;;;;;;5036672;28;20029;-69
2023/10/27 20:44:08;;;;;;;7.10;1.37;;;12.90;99.90;;;;;;5035072;28;20124;-68
2023/10/27 20:46:34;;;;;;;7.50;1.40;;;13.00;99.90;;;;;;5037139;28;20101;-69
2023/10/27 20:48:59;;;;;;;6.03;1.38;;;13.00;99.90;;;;;;5036651;28;20120;-69
2023/10/27 20:51:25;;;;;;;5.87;1.07;;;13.10;99.90;;;;;;5035133;28;20067;-69
2023/10/27 20:53:50;;;;;;;5.00;1.23;;;13.00;99.90;;;;;;5035596;28;20439;-69
2023/10/27 20:56:16;;;;;;;6.03;1.73;;;13.00;99.90;;;;;;5036929;28;20026;-70
2023/10/27 20:58:41;;;;;;;6.87;1.63;;;13.00;99.90;;;;;;5036574;28;20109;-69
2023/10/27 21:01:07;;;;;;;3.90;1.07;;;13.00;99.90;;;;;;5036474;28;20040;-69
2023/10/27 21:03:34;;;;;;;2.92;0.90;;;12.90;99.90;;;;;;5035367;28;20295;-69
2023/10/27 21:06:05;;;;;;;3.63;0.98;;;12.90;99.90;;;;;;5036742;28;20033;-69
2023/10/27 21:08:32;;;;;;;5.05;1.23;;;12.70;99.90;;;;;;5036617;28;20022;-69
2023/10/27 21:10:58;;;;;;;6.30;1.30;;;12.80;99.90;;;;;;5036560;28;20033;-69
2023/10/27 21:13:25;;;;;;;6.25;1.30;;;12.70;99.90;;;;;;5036441;28;20403;-69
2023/10/27 21:15:51;;;;;;;3.67;1.05;;;12.70;99.90;;;;;;5034584;28;20026;-69
2023/10/27 21:18:19;;;;;;;4.70;1.35;;;12.60;99.90;;;;;;5036422;28;20022;-69
2023/10/27 21:20:44;;;;;;;3.40;1.00;;;12.70;99.90;;;;;;5035457;28;20040;-69
2023/10/27 21:23:10;;;;;;;4.35;1.00;;;12.70;99.90;;;;;;5035007;28;20120;-69
2023/10/27 21:25:36;;;;;;;3.90;1.13;;;12.60;99.90;;;;;;5035359;28;20045;-69
2023/10/27 21:28:04;;;;;;;7.25;1.10;;;12.50;99.90;;;;;;5036434;28;20056;-69
2023/10/27 21:30:29;;;;;;;4.40;1.02;;;12.50;99.90;;;;;;5034995;28;20034;-69
2023/10/27 21:32:55;;;;;;;3.92;0.90;;;12.60;99.90;;;;;;5036141;28;20398;-69
2023/10/27 21:35:20;;;;;;;4.17;0.90;;;12.60;99.90;;;;;;5035836;28;20040;-69
2023/10/27 21:37:51;;;;;;;7.63;1.00;;;12.60;99.90;;;;;;5035403;28;20036;-69
2023/10/27 21:40:17;;;;;;;5.47;0.93;;;12.60;99.90;;;;;;5036206;28;20132;-69
2023/10/27 21:42:42;;;;;;;7.50;1.70;;;12.70;99.90;;;;;;5036033;28;20029;-69
2023/10/27 21:45:08;;;;;;;3.37;0.97;;;12.70;99.90;;;;;;5035566;28;20048;-69
2023/10/27 21:47:34;;;;;;;3.28;0.90;;;12.60;99.90;;;;;;5036220;28;20151;-69
2023/10/27 21:49:59;;;;;;;2.17;0.80;;;12.70;99.90;;;;;;5035051;28;20101;-70
2023/10/27 21:52:25;;;;;;;6.60;1.17;;;12.70;99.90;;;;;;5048515;28;20033;-69
2023/10/27 21:54:51;;;;;;;2.23;0.80;;;12.60;99.90;;;;;;5055681;28;20021;-69
2023/10/27 21:57:16;;;;;;;1.15;0.60;;;12.60;99.90;;;;;;5055830;28;20021;-69
2023/10/27 21:59:42;;;;;;;1.20;0.60;;;12.60;99.90;;;;;;5056349;28;20025;-69
2023/10/27 22:02:10;;;;;;;1.67;0.60;;;12.50;99.90;;;;;;5056188;28;20029;-69
2023/10/27 22:04:35;;;;;;;1.98;0.63;;;12.50;99.90;;;;;;5054486;28;20029;-69
2023/10/27 22:07:01;;;;;;;2.95;1.30;;;12.40;99.90;;;;;;5054907;28;20479;-69
2023/10/27 22:09:28;;;;;;;2.53;0.83;;;12.40;99.90;;;;;;5054768;28;20175;-69
2023/10/27 22:11:53;;;;;;;;;;;12.30;99.90;;;;;;5054887;28;20333;-69
2023/10/27 22:14:19;;;;;;;2.72;0.80;;;12.40;99.90;;;;;;5052935;28;20318;-69
2023/10/27 22:16:46;;;;;;;2.38;0.68;;;12.40;99.90;;;;;;5054270;28;20043;-70
2023/10/27 22:19:12;;;;;;;4.03;0.90;;;12.50;99.90;;;;;;5053140;28;20033;-70
2023/10/27 22:21:38;;;;;;;3.45;0.70;;;12.50;99.90;;;;;;5048256;28;20136;-70
2023/10/27 22:24:05;;;;;;;3.07;0.60;;;12.50;99.90;;;;;;5032952;28;20036;-70
2023/10/27 22:26:31;;;;;;;2.55;0.70;;;12.50;99.90;;;;;;5034230;28;20048;-69
2023/10/27 22:28:57;;;;;;;1.85;0.70;;;12.50;99.90;;;;;;5034210;28;20475;-69
2023/10/27 22:31:23;;;;;;;;;;;12.40;99.90;;;;;;5034251;28;20064;-69
2023/10/27 22:33:49;;;;;;;1.67;0.60;;;12.40;99.90;;;;;;5034374;28;19909;-69
2023/10/27 22:36:14;;;;;;;1.02;0.70;;;12.40;99.90;;;;;;5032722;28;20030;-69
2023/10/27 22:38:40;;;;;;;0.60;0.40;;;12.40;99.90;;;;;;5034165;28;20037;-69
2023/10/27 22:41:11;;;;;;;2.23;0.83;;;12.40;99.90;;;;;;5033070;28;20032;-69
2023/10/27 22:43:36;;;;;;;1.23;0.50;;;12.30;99.90;;;;;;5034155;28;20033;-68
2023/10/27 22:46:05;;;;;;;4.13;0.70;;;12.20;99.90;;;;;;5032603;28;20032;-69
2023/10/27 22:48:30;;;;;;;2.30;0.80;;;12.20;99.90;;;;;;5032653;28;20033;-69
2023/10/27 22:50:57;;;;;;;1.20;0.60;;;12.10;99.90;;;;;;5032539;28;20030;-69
2023/10/27 22:53:23;;;;;;;1.60;0.50;;;12.00;99.90;;;;;;5033962;28;20392;-69
2023/10/27 22:55:48;;;;;;;1.97;0.53;;;11.90;99.90;;;;;;5034323;28;20021;-69
2023/10/27 22:58:14;;;;;;;2.40;0.53;;;11.80;99.90;;;;;;5033976;28;20494;-68
2023/10/27 23:00:43;;;;;;;1.70;0.60;;;11.80;99.90;;;;;;5031746;28;20052;-69
2023/10/27 23:03:10;;;;;;;2.28;0.82;;;11.80;99.90;;;;;;5033690;28;20294;-69
2023/10/27 23:05:36;;;;;;;2.00;0.82;;;11.70;99.90;;;;;;5033796;28;20032;-69
2023/10/27 23:08:04;;;;;;;3.95;1.00;;;11.70;99.90;;;;;;5032463;28;20025;-69
2023/10/27 23:10:30;;;;;;;2.28;0.70;;;11.60;99.90;;;;;;5033737;28;20029;-69
2023/10/27 23:12:56;;;;;;;1.52;0.80;;;11.60;99.90;;;;;;5033932;28;20468;-69
2023/10/27 23:15:21;;;;;;;0.77;0.50;;;11.60;99.90;;;;;;5033606;28;20075;-69
2023/10/27 23:17:47;;;;;;;0.77;0.50;;;11.50;99.90;;;;;;5032320;28;20021;-69
2023/10/27 23:20:12;;;;;;;2.60;0.80;;;11.40;99.90;;;;;;5033535;28;20159;-68
2023/10/27 23:22:39;;;;;;;1.87;0.87;;;11.40;99.90;;;;;;5033277;28;20041;-68
2023/10/27 23:25:05;;;;;;;;;;;11.40;99.90;;;;;;5032249;28;20025;-68
2023/10/27 23:27:31;;;;;;;2.70;0.75;;;11.40;99.90;;;;;;5033194;28;19912;-68
2023/10/27 23:29:56;;;;;;;2.43;0.90;;;11.40;99.90;;;;;;5032883;28;20029;-69
2023/10/27 23:32:22;;;;;;;1.52;0.60;;;11.30;99.90;;;;;;5033152;28;20559;-68
2023/10/27 23:34:48;;;;;;;2.90;0.70;;;11.40;99.90;;;;;;5033339;28;20025;-69
2023/10/27 23:37:13;;;;;;;2.97;0.70;;;11.30;99.90;;;;;;5033290;28;20018;-69
2023/10/27 23:39:39;;;;;;;2.13;0.60;;;11.30;99.90;;;;;;5033091;28;20022;-67
2023/10/27 23:42:08;;;;;;;2.43;0.57;;;11.30;99.90;;;;;;5031590;28;20306;-67
2023/10/27 23:44:34;;;;;;;2.60;0.93;;;11.40;99.90;;;;;;5031303;28;20057;-67
2023/10/27 23:47:00;;;;;;;0.73;0.43;;;11.40;99.90;;;;;;5032845;28;20409;-67
2023/10/27 23:49:26;;;;;;;1.95;0.55;;;11.40;99.90;;;;;;5031711;28;20064;-67
2023/10/27 23:51:51;;;;;;;3.20;0.63;;;11.40;99.90;;;;;;5031850;28;20105;-67
2023/10/27 23:54:17;;;;;;;2.33;0.50;;;11.40;99.90;;;;;;5031688;28;20029;-67
2023/10/27 23:56:42;;;;;;;0.57;0.37;;;11.40;99.90;;;;;;5031535;28;20101;-67
2023/10/27 23:59:11;;;;;;;1.00;0.63;;;11.40;99.90;;;;;;5033391;28;20108;-67
